createdAt,value
2023-06-14T00:01:26.288Z,3.60
2023-06-14T00:03:55.441Z,3.42
2023-06-14T00:06:25.699Z,3.10
2023-06-14T00:08:55.312Z,3.42
2023-06-14T00:11:25.342Z,3.35
2023-06-14T00:13:54.077Z,3.63
2023-06-14T00:16:22.506Z,3.33
2023-06-14T00:18:52.944Z,3.40
2023-06-14T00:21:22.088Z,3.22
2023-06-14T00:23:53.021Z,3.28
2023-06-14T00:26:22.092Z,3.67
2023-06-14T00:28:52.232Z,3.60
2023-06-14T00:31:20.964Z,3.75
2023-06-14T00:33:49.615Z,3.63
2023-06-14T00:36:22.938Z,3.22
2023-06-14T00:38:52.323Z,3.50
2023-06-14T00:41:20.848Z,3.40
2023-06-14T00:43:49.508Z,3.75
2023-06-14T00:46:20.483Z,3.90
2023-06-14T00:48:51.883Z,3.22
2023-06-14T00:51:21.142Z,3.70
2023-06-14T00:53:52.695Z,3.75
2023-06-14T00:56:22.052Z,3.85
2023-06-14T00:58:54.056Z,3.75
2023-06-14T01:01:27.503Z,3.90
2023-06-14T01:03:56.802Z,3.20
2023-06-14T01:06:32.248Z,3.50
2023-06-14T01:09:08.981Z,3.85
2023-06-14T01:11:43.749Z,3.70
2023-06-14T01:14:15.715Z,3.60
2023-06-14T01:16:46.589Z,3.75
2023-06-14T01:19:17.240Z,3.95
2023-06-14T01:21:46.196Z,3.80
2023-06-14T01:24:16.310Z,3.63
2023-06-14T01:26:47.516Z,3.85
2023-06-14T01:29:19.032Z,3.85
2023-06-14T01:31:48.750Z,3.70
2023-06-14T01:34:17.464Z,4.20
2023-06-14T01:36:49.761Z,3.58
2023-06-14T01:39:20.531Z,3.92
2023-06-14T01:41:51.597Z,3.67
2023-06-14T01:44:21.832Z,3.63
2023-06-14T01:46:51.163Z,3.63
2023-06-14T01:49:20.242Z,3.65
2023-06-14T01:51:49.613Z,3.33
2023-06-14T01:54:20.067Z,4.25
2023-06-14T01:56:48.877Z,4.57
2023-06-14T01:59:18.316Z,3.95
2023-06-14T02:01:50.476Z,3.28
2023-06-14T02:04:19.450Z,3.75
2023-06-14T02:06:50.016Z,3.78
2023-06-14T02:09:21.836Z,3.30
2023-06-14T02:11:50.755Z,3.97
2023-06-14T02:14:20.209Z,3.50
2023-06-14T02:16:51.354Z,4.85
2023-06-14T02:19:22.954Z,4.38
2023-06-14T02:21:54.580Z,4.32
2023-06-14T02:24:24.827Z,4.40
2023-06-14T02:26:53.832Z,4.15
2023-06-14T02:29:23.508Z,4.40
2023-06-14T02:31:52.639Z,4.13
2023-06-14T02:34:23.545Z,4.78
2023-06-14T02:36:56.969Z,3.95
2023-06-14T02:39:27.223Z,5.00
2023-06-14T02:41:59.200Z,3.93
2023-06-14T02:44:31.834Z,4.30
2023-06-14T02:47:02.999Z,4.45
2023-06-14T02:49:31.913Z,4.35
2023-06-14T02:52:01.476Z,4.72
2023-06-14T02:54:31.951Z,4.75
2023-06-14T02:57:01.488Z,4.90
2023-06-14T02:59:30.311Z,4.05
2023-06-14T03:02:02.359Z,4.20
2023-06-14T03:04:36.192Z,3.97
2023-06-14T03:07:10.721Z,4.72
2023-06-14T03:09:43.814Z,4.80
2023-06-14T03:12:14.320Z,4.13
2023-06-14T03:14:43.203Z,5.00
2023-06-14T03:17:14.836Z,4.45
2023-06-14T03:19:45.733Z,5.10
2023-06-14T03:22:15.517Z,4.88
2023-06-14T03:24:46.161Z,4.90
2023-06-14T03:27:17.332Z,4.97
2023-06-14T03:29:48.140Z,4.93
2023-06-14T03:32:19.293Z,5.15
2023-06-14T03:34:47.879Z,4.50
2023-06-14T03:37:21.071Z,4.60
2023-06-14T03:39:51.783Z,4.47
2023-06-14T03:42:27.458Z,4.88
2023-06-14T03:44:57.899Z,5.32
2023-06-14T03:47:26.885Z,4.93
2023-06-14T03:49:55.968Z,5.22
2023-06-14T03:52:24.624Z,5.80
2023-06-14T03:55:55.544Z,5.38
2023-06-14T03:57:46.177Z,5.38
2023-06-14T04:00:19.308Z,5.65
2023-06-14T04:02:48.265Z,5.72
2023-06-14T04:05:18.008Z,5.97
2023-06-14T04:07:51.998Z,5.53
2023-06-14T04:10:22.096Z,6.00
2023-06-14T04:12:50.672Z,5.78
2023-06-14T04:15:21.939Z,5.65
2023-06-14T04:17:58.517Z,4.97
2023-06-14T04:20:30.517Z,5.13
2023-06-14T04:23:02.388Z,5.18
2023-06-14T04:25:33.559Z,5.60
2023-06-14T04:28:02.932Z,5.07
2023-06-14T04:30:32.691Z,4.90
2023-06-14T04:33:01.631Z,4.75
2023-06-14T04:35:33.495Z,5.05
2023-06-14T04:38:03.179Z,4.63
2023-06-14T04:40:34.711Z,4.93
2023-06-14T04:43:08.704Z,4.75
2023-06-14T04:45:38.173Z,4.07
2023-06-14T04:48:07.946Z,4.10
2023-06-14T04:50:36.809Z,3.95
2023-06-14T04:53:06.890Z,3.33
2023-06-14T04:55:38.420Z,3.40
2023-06-14T04:58:07.789Z,2.42
2023-06-14T05:00:36.743Z,3.00
2023-06-14T05:03:07.632Z,3.50
2023-06-14T05:05:40.835Z,3.05
2023-06-14T05:08:09.615Z,2.70
2023-06-14T05:10:39.698Z,2.95
2023-06-14T05:13:11.873Z,3.40
2023-06-14T05:15:40.582Z,2.35
2023-06-14T05:18:11.266Z,3.15
2023-06-14T05:20:41.228Z,2.90
2023-06-14T05:23:09.982Z,2.90
2023-06-14T05:25:39.797Z,2.70
2023-06-14T05:28:08.193Z,3.20
2023-06-14T05:30:36.970Z,3.38
2023-06-14T05:33:05.734Z,3.58
2023-06-14T05:35:34.914Z,2.90
2023-06-14T05:38:03.568Z,2.47
2023-06-14T05:40:32.054Z,3.05
2023-06-14T05:43:01.997Z,2.70
2023-06-14T05:45:31.038Z,3.05
2023-06-14T05:48:02.183Z,2.58
2023-06-14T05:50:30.970Z,2.75
2023-06-14T05:52:59.410Z,2.72
2023-06-14T05:55:29.106Z,3.00
2023-06-14T05:58:00.419Z,2.88
2023-06-14T06:00:32.551Z,2.20
2023-06-14T06:03:02.269Z,2.17
2023-06-14T06:05:30.825Z,2.25
2023-06-14T06:08:05.533Z,2.30
2023-06-14T06:10:34.349Z,2.58
2023-06-14T06:13:02.711Z,2.25
2023-06-14T06:15:32.768Z,2.15
2023-06-14T06:18:03.945Z,2.10
2023-06-14T06:20:32.855Z,1.73
2023-06-14T06:23:03.201Z,1.90
2023-06-14T06:25:32.899Z,2.17
2023-06-14T06:28:01.747Z,2.40
2023-06-14T06:30:32.062Z,2.50
2023-06-14T06:33:02.231Z,1.90
2023-06-14T06:35:34.496Z,2.85
2023-06-14T06:38:03.246Z,2.00
2023-06-14T06:40:31.655Z,1.88
2023-06-14T06:43:00.319Z,2.30
2023-06-14T06:45:30.039Z,2.03
2023-06-14T06:47:58.897Z,1.92
2023-06-14T06:50:30.730Z,2.00
2023-06-14T06:52:59.265Z,1.83
2023-06-14T06:55:27.699Z,2.25
2023-06-14T06:57:58.253Z,1.60
2023-06-14T07:00:49.576Z,1.48
2023-06-14T07:03:32.237Z,1.65
2023-06-14T07:06:15.472Z,1.60
2023-06-14T07:08:44.356Z,2.05
2023-06-14T07:11:13.199Z,1.80
2023-06-14T07:13:42.030Z,1.88
2023-06-14T07:16:10.589Z,2.10
2023-06-14T07:18:39.769Z,1.77
2023-06-14T07:21:08.403Z,1.50
2023-06-14T07:23:42.333Z,1.65
2023-06-14T07:26:15.095Z,2.00
2023-06-14T07:28:46.267Z,2.47
2023-06-14T07:31:20.343Z,1.65
2023-06-14T07:33:51.133Z,1.75
2023-06-14T07:36:19.914Z,2.20
2023-06-14T07:38:49.800Z,1.70
2023-06-14T07:41:21.487Z,2.15
2023-06-14T07:43:50.150Z,1.95
2023-06-14T07:46:21.667Z,2.00
2023-06-14T07:48:55.141Z,1.90
2023-06-14T07:51:26.413Z,2.00
2023-06-14T07:53:56.532Z,1.65
2023-06-14T07:56:25.187Z,1.88
2023-06-14T07:58:53.862Z,1.85
2023-06-14T08:01:26.539Z,2.08
2023-06-14T08:03:55.863Z,2.20
2023-06-14T08:06:24.558Z,1.83
2023-06-14T08:08:56.718Z,3.28
2023-06-14T08:11:26.194Z,2.25
2023-06-14T08:13:54.582Z,2.33
2023-06-14T08:16:23.335Z,2.17
2023-06-14T08:18:52.185Z,2.30
2023-06-14T08:21:20.716Z,2.22
2023-06-14T08:23:49.812Z,2.20
2023-06-14T08:26:22.385Z,1.92
2023-06-14T08:28:51.047Z,2.45
2023-06-14T08:31:19.692Z,2.53
2023-06-14T08:33:51.026Z,2.10
2023-06-14T08:36:20.003Z,2.20
2023-06-14T08:38:48.468Z,2.38
2023-06-14T08:41:26.029Z,1.95
2023-06-14T08:43:55.035Z,2.30
2023-06-14T08:46:23.774Z,2.03
2023-06-14T08:48:53.379Z,1.98
2023-06-14T08:51:24.860Z,2.05
2023-06-14T08:53:58.822Z,2.45
2023-06-14T08:56:30.304Z,2.58
2023-06-14T08:59:04.315Z,2.58
2023-06-14T09:01:35.907Z,2.08
2023-06-14T09:04:06.846Z,2.30
2023-06-14T09:06:35.310Z,2.35
2023-06-14T09:09:05.362Z,2.47
2023-06-14T09:11:35.305Z,1.92
2023-06-14T09:14:05.792Z,2.65
2023-06-14T09:16:35.101Z,2.55
2023-06-14T09:19:03.951Z,2.50
2023-06-14T09:21:36.968Z,1.85
2023-06-14T09:24:07.456Z,2.53
2023-06-14T09:26:43.331Z,2.22
2023-06-14T09:29:12.470Z,2.45
2023-06-14T09:31:46.305Z,1.90
2023-06-14T09:34:18.642Z,2.25
2023-06-14T09:36:47.537Z,2.58
2023-06-14T09:39:21.226Z,2.35
2023-06-14T09:41:51.762Z,2.47
2023-06-14T09:44:22.156Z,1.35
2023-06-14T09:46:51.329Z,2.08
2023-06-14T09:49:20.096Z,2.03
2023-06-14T09:51:52.515Z,2.35
2023-06-14T09:54:25.085Z,2.20
2023-06-14T09:56:58.816Z,2.58
2023-06-14T09:59:31.005Z,2.10
2023-06-14T10:02:02.040Z,2.47
2023-06-14T10:04:32.644Z,2.28
2023-06-14T10:07:02.605Z,2.35
2023-06-14T10:09:33.263Z,2.22
2023-06-14T10:12:04.241Z,2.53
2023-06-14T10:14:35.980Z,2.50
2023-06-14T10:17:09.337Z,2.20
2023-06-14T10:19:43.686Z,2.20
2023-06-14T10:24:44.474Z,2.20
2023-06-14T10:27:18.573Z,2.35
2023-06-14T10:35:28.647Z,2.30
2023-06-14T10:37:57.272Z,2.40
2023-06-14T10:40:33.152Z,2.47
2023-06-14T10:43:03.122Z,2.53
2023-06-14T10:45:31.705Z,2.10
2023-06-14T10:48:00.986Z,2.33
2023-06-14T10:50:34.982Z,2.25
2023-06-14T10:55:37.388Z,2.50
2023-06-14T10:58:08.652Z,2.20
2023-06-14T11:00:42.401Z,2.20
2023-06-14T11:03:37.384Z,2.70
2023-06-14T11:06:15.628Z,2.13
2023-06-14T11:09:04.375Z,2.40
2023-06-14T11:11:36.347Z,2.63
2023-06-14T11:14:08.883Z,2.50
2023-06-14T11:16:37.370Z,2.78
2023-06-14T11:19:06.390Z,2.67
2023-06-14T11:21:35.873Z,2.70
2023-06-14T11:24:04.430Z,2.42
2023-06-14T11:26:36.035Z,2.50
2023-06-14T11:29:06.965Z,2.30
2023-06-14T11:31:37.663Z,2.65
2023-06-14T11:34:07.668Z,2.22
2023-06-14T11:36:36.809Z,2.40
2023-06-14T11:39:07.209Z,2.30
2023-06-14T11:41:38.863Z,2.17
2023-06-14T11:44:09.487Z,2.80
2023-06-14T11:46:38.503Z,2.33
2023-06-14T11:49:08.654Z,2.28
2023-06-14T11:51:40.778Z,2.42
2023-06-14T11:54:12.368Z,2.00
2023-06-14T11:56:41.121Z,2.35
2023-06-14T11:59:10.904Z,2.30
2023-06-14T12:01:41.778Z,2.53
2023-06-14T12:04:10.760Z,1.92
2023-06-14T12:06:41.168Z,2.33
2023-06-14T12:09:14.629Z,2.33
2023-06-14T12:11:47.440Z,2.10
2023-06-14T12:14:18.062Z,2.60
2023-06-14T12:16:46.652Z,2.10
2023-06-14T12:19:16.648Z,2.20
2023-06-14T12:21:48.063Z,2.83
2023-06-14T12:24:16.697Z,2.47
2023-06-14T12:26:48.455Z,2.40
2023-06-14T12:29:18.724Z,2.42
2023-06-14T12:31:47.109Z,1.70
2023-06-14T12:34:15.845Z,2.28
2023-06-14T12:36:48.594Z,1.98
2023-06-14T12:39:17.659Z,1.98
2023-06-14T12:41:46.201Z,2.45
2023-06-14T12:44:17.389Z,2.00
2023-06-14T12:46:48.291Z,2.30
2023-06-14T12:49:16.893Z,2.33
2023-06-14T12:51:45.684Z,2.38
2023-06-14T12:54:18.547Z,2.10
2023-06-14T12:56:52.421Z,2.30
2023-06-14T12:59:20.987Z,2.40
2023-06-14T13:01:54.776Z,2.33
2023-06-14T13:04:23.364Z,2.00
2023-06-14T13:06:53.110Z,2.40
2023-06-14T13:09:21.587Z,2.08
2023-06-14T13:11:52.740Z,2.38
2023-06-14T13:14:26.023Z,2.17
2023-06-14T13:16:57.271Z,2.05
2023-06-14T13:19:28.011Z,1.70
2023-06-14T13:22:02.288Z,2.17
2023-06-14T13:24:31.298Z,2.17
2023-06-14T13:27:00.180Z,2.10
2023-06-14T13:29:32.475Z,2.40
2023-06-14T13:32:04.989Z,2.42
2023-06-14T13:34:33.733Z,2.03
2023-06-14T13:37:03.716Z,1.98
2023-06-14T13:39:32.201Z,2.28
2023-06-14T13:42:00.683Z,2.00
2023-06-14T13:44:29.450Z,2.17
2023-06-14T13:46:59.061Z,2.38
2023-06-14T13:49:34.992Z,2.05
2023-06-14T13:52:05.197Z,2.00
2023-06-14T13:54:36.462Z,2.08
2023-06-14T13:57:05.323Z,2.15
2023-06-14T13:59:34.804Z,2.10
2023-06-14T14:02:07.122Z,1.80
2023-06-14T14:04:38.007Z,2.30
2023-06-14T14:07:08.281Z,1.98
2023-06-14T14:09:40.641Z,1.90
2023-06-14T14:12:15.419Z,2.47
2023-06-14T14:14:51.649Z,2.47
2023-06-14T14:17:20.749Z,1.98
2023-06-14T14:19:50.963Z,2.28
2023-06-14T14:22:19.519Z,2.13
2023-06-14T14:24:50.792Z,2.47
2023-06-14T14:27:19.337Z,2.33
2023-06-14T14:29:47.820Z,2.33
2023-06-14T14:32:17.786Z,2.10
2023-06-14T14:34:48.694Z,1.90
2023-06-14T14:37:21.560Z,2.15
2023-06-14T14:39:50.258Z,2.08
2023-06-14T14:42:19.663Z,2.15
2023-06-14T14:44:48.258Z,2.30
2023-06-14T14:47:16.906Z,2.83
2023-06-14T14:49:45.630Z,2.10
2023-06-14T14:52:23.313Z,2.55
2023-06-14T14:54:55.208Z,2.10
2023-06-14T14:57:24.067Z,2.28
2023-06-14T14:59:54.517Z,2.08
2023-06-14T15:02:24.993Z,2.22
2023-06-14T15:04:53.715Z,2.40
2023-06-14T15:07:25.296Z,2.30
2023-06-14T15:09:55.521Z,2.08
2023-06-14T15:12:24.262Z,2.17
2023-06-14T15:14:53.439Z,1.90
2023-06-14T15:17:22.484Z,2.30
2023-06-14T15:19:51.111Z,2.40
2023-06-14T15:22:19.720Z,2.10
2023-06-14T15:24:50.351Z,2.20
2023-06-14T15:27:20.983Z,2.50
2023-06-14T15:29:51.504Z,2.15
2023-06-14T15:32:20.746Z,2.25
2023-06-14T15:34:49.891Z,2.10
2023-06-14T15:37:20.972Z,2.00
2023-06-14T15:39:49.518Z,2.40
2023-06-14T15:42:18.157Z,3.50
2023-06-14T15:44:51.171Z,2.28
2023-06-14T15:47:19.719Z,2.50
2023-06-14T15:49:48.189Z,2.30
2023-06-14T15:52:17.223Z,2.20
2023-06-14T15:54:48.557Z,2.40
2023-06-14T15:57:18.339Z,2.55
2023-06-14T15:59:46.750Z,2.08
2023-06-14T16:02:16.771Z,2.53
2023-06-14T16:04:45.532Z,2.10
2023-06-14T16:07:16.811Z,2.15
2023-06-14T16:09:48.352Z,2.30
2023-06-14T16:12:19.445Z,2.55
2023-06-14T16:14:52.121Z,2.08
2023-06-14T16:17:22.090Z,2.38
2023-06-14T16:19:50.926Z,2.35
2023-06-14T16:22:22.505Z,1.90
2023-06-14T16:24:51.078Z,1.80
2023-06-14T16:27:20.140Z,2.03
2023-06-14T16:29:48.704Z,2.10
2023-06-14T16:32:17.561Z,2.45
2023-06-14T16:34:47.485Z,2.10
2023-06-14T16:37:17.742Z,2.30
2023-06-14T16:39:46.228Z,2.00
2023-06-14T16:42:26.468Z,2.05
2023-06-14T16:44:58.122Z,1.85
2023-06-14T16:47:26.841Z,1.98
2023-06-14T16:50:00.315Z,2.15
2023-06-14T16:52:29.314Z,1.70
2023-06-14T16:55:00.032Z,2.05
2023-06-14T16:57:29.037Z,2.08
2023-06-14T16:59:57.405Z,2.28
2023-06-14T17:02:28.652Z,2.10
2023-06-14T17:05:01.561Z,1.90
2023-06-14T17:07:32.428Z,2.10
2023-06-14T17:10:03.726Z,1.90
2023-06-14T17:12:35.587Z,2.30
2023-06-14T17:15:08.538Z,1.88
2023-06-14T17:17:37.392Z,2.42
2023-06-14T17:20:09.025Z,2.33
2023-06-14T17:22:37.590Z,1.80
2023-06-14T17:25:09.738Z,2.00
2023-06-14T17:27:38.706Z,1.65
2023-06-14T17:30:08.609Z,1.98
2023-06-14T17:32:37.316Z,2.30
2023-06-14T17:35:08.179Z,2.10
2023-06-14T17:37:37.023Z,1.98
2023-06-14T17:40:06.620Z,2.28
2023-06-14T17:42:35.293Z,2.10
2023-06-14T17:45:04.877Z,2.22
2023-06-14T17:47:36.741Z,1.60
2023-06-14T17:50:10.529Z,2.03
2023-06-14T17:55:08.922Z,1.80
2023-06-14T17:57:37.636Z,2.13
2023-06-14T18:00:09.339Z,2.05
2023-06-14T18:02:41.767Z,2.45
2023-06-14T18:05:14.108Z,2.10
2023-06-14T18:07:45.426Z,2.10
2023-06-14T18:10:18.559Z,2.10
2023-06-14T18:15:16.867Z,2.60
2023-06-14T18:17:45.709Z,2.28
2023-06-14T18:20:17.935Z,2.33
2023-06-14T18:22:46.678Z,2.42
2023-06-14T18:25:16.964Z,2.22
2023-06-14T18:27:48.143Z,2.70
2023-06-14T18:30:16.943Z,2.30
2023-06-14T18:32:48.103Z,2.17
2023-06-14T18:35:19.038Z,2.35
2023-06-14T18:37:47.818Z,2.33
2023-06-14T18:40:16.554Z,2.25
2023-06-14T18:42:45.198Z,2.30
2023-06-14T18:45:13.685Z,2.65
2023-06-14T18:47:42.584Z,2.70
2023-06-14T18:50:12.009Z,2.65
2023-06-14T18:52:41.988Z,2.88
2023-06-14T18:55:11.654Z,2.50
2023-06-14T18:57:40.377Z,2.58
2023-06-14T19:00:10.263Z,2.78
2023-06-14T19:02:39.646Z,2.30
2023-06-14T19:05:09.320Z,2.20
2023-06-14T19:07:37.930Z,2.60
2023-06-14T19:10:08.995Z,2.25
2023-06-14T19:12:38.373Z,2.60
2023-06-14T19:15:07.753Z,2.20
2023-06-14T19:17:36.393Z,2.42
2023-06-14T19:20:05.609Z,3.17
2023-06-14T19:22:34.225Z,2.60
2023-06-14T19:25:03.009Z,2.60
2023-06-14T19:27:36.255Z,2.40
2023-06-14T19:30:06.479Z,2.97
2023-06-14T19:32:36.785Z,2.40
2023-06-14T19:35:06.574Z,2.60
2023-06-14T19:37:35.050Z,2.60
2023-06-14T19:40:03.497Z,2.65
2023-06-14T19:42:35.739Z,2.58
2023-06-14T19:45:04.414Z,2.70
2023-06-14T19:47:34.028Z,3.00
2023-06-14T19:50:02.666Z,2.78
2023-06-14T19:52:32.486Z,3.30
2023-06-14T19:55:01.316Z,3.15
2023-06-14T19:57:31.941Z,2.67
2023-06-14T20:00:04.360Z,2.75
2023-06-14T20:02:37.188Z,2.80
2023-06-14T20:05:06.279Z,2.55
2023-06-14T20:07:34.708Z,2.70
2023-06-14T20:10:03.761Z,2.65
2023-06-14T20:12:33.187Z,2.70
2023-06-14T20:15:03.331Z,2.70
2023-06-14T20:17:33.421Z,2.75
2023-06-14T20:20:01.932Z,2.92
2023-06-14T20:22:38.551Z,3.10
2023-06-14T20:25:11.011Z,2.60
2023-06-14T20:27:39.729Z,2.80
2023-06-14T20:30:10.839Z,2.60
2023-06-14T20:32:39.712Z,2.65
2023-06-14T20:35:08.749Z,2.50
2023-06-14T20:37:37.364Z,2.90
2023-06-14T20:40:07.527Z,3.03
2023-06-14T20:42:36.337Z,2.80
2023-06-14T20:45:07.871Z,2.55
2023-06-14T20:47:38.814Z,3.10
2023-06-14T20:50:09.287Z,2.50
2023-06-14T20:52:37.838Z,2.78
2023-06-14T20:55:07.435Z,2.72
2023-06-14T20:57:36.194Z,3.00
2023-06-14T21:00:11.376Z,2.88
2023-06-14T21:02:41.640Z,2.92
2023-06-14T21:05:10.659Z,2.97
2023-06-14T21:07:39.376Z,3.03
2023-06-14T21:10:08.444Z,3.13
2023-06-14T21:12:37.097Z,2.80
2023-06-14T21:15:06.460Z,2.92
2023-06-14T21:17:35.158Z,3.17
2023-06-14T21:20:06.667Z,3.00
2023-06-14T21:22:36.003Z,2.72
2023-06-14T21:25:04.707Z,3.70
2023-06-14T21:27:33.692Z,3.10
2023-06-14T21:30:02.406Z,3.30
2023-06-14T21:32:33.639Z,3.53
2023-06-14T21:35:02.334Z,3.67
2023-06-14T21:37:34.412Z,3.40
2023-06-14T21:40:13.352Z,3.88
2023-06-14T21:42:42.333Z,4.35
2023-06-14T21:45:12.445Z,4.20
2023-06-14T21:47:41.229Z,4.40
2023-06-14T21:50:10.715Z,4.90
2023-06-14T21:52:40.590Z,4.43
2023-06-14T21:55:09.884Z,4.00
2023-06-14T21:57:38.366Z,4.00
2023-06-14T22:00:09.787Z,4.45
2023-06-14T22:02:38.365Z,4.70
2023-06-14T22:05:07.852Z,4.70
2023-06-14T22:07:36.827Z,4.43
2023-06-14T22:10:07.961Z,4.60
2023-06-14T22:12:36.489Z,5.10
2023-06-14T22:15:06.226Z,4.82
2023-06-14T22:17:35.815Z,4.97
2023-06-14T22:20:06.795Z,4.65
2023-06-14T22:22:39.067Z,5.05
2023-06-14T22:25:10.028Z,5.25
2023-06-14T22:27:47.980Z,4.30
2023-06-14T22:30:18.004Z,5.00
2023-06-14T22:32:47.278Z,5.03
2023-06-14T22:35:16.298Z,5.18
2023-06-14T22:37:44.991Z,4.88
2023-06-14T22:40:15.543Z,4.78
2023-06-14T22:42:49.869Z,5.28
2023-06-14T22:45:24.444Z,5.15
2023-06-14T22:47:54.781Z,5.07
2023-06-14T22:50:23.953Z,5.35
2023-06-14T22:52:52.716Z,5.32
2023-06-14T22:55:27.670Z,4.93
2023-06-14T22:57:57.041Z,5.70
2023-06-14T23:00:25.664Z,5.10
2023-06-14T23:02:54.646Z,5.63
2023-06-14T23:05:23.177Z,5.68
2023-06-14T23:07:53.161Z,5.20
2023-06-14T23:10:24.114Z,5.07
2023-06-14T23:12:52.838Z,5.35
2023-06-14T23:15:23.847Z,5.55
2023-06-14T23:17:53.872Z,5.60
2023-06-14T23:20:23.097Z,5.47
2023-06-14T23:22:53.165Z,5.93
2023-06-14T23:25:25.651Z,5.45
2023-06-14T23:27:54.360Z,5.40
2023-06-14T23:30:23.983Z,5.60
2023-06-14T23:32:52.491Z,4.97
2023-06-14T23:35:22.317Z,5.32
2023-06-14T23:37:51.782Z,5.35
2023-06-14T23:40:20.464Z,5.03
2023-06-14T23:42:52.172Z,5.30
2023-06-14T23:45:23.750Z,4.95
2023-06-14T23:47:54.537Z,4.88
2023-06-14T23:50:23.499Z,6.18
2023-06-14T23:52:58.618Z,5.90
2023-06-14T23:55:30.794Z,5.68
2023-06-14T23:58:01.307Z,5.55
